createdAt,value
2022-10-10T00:00:07.859Z,18.70
2022-10-10T00:15:14.641Z,18.80
2022-10-10T00:30:19.888Z,18.70
2022-10-10T00:45:33.805Z,18.60
2022-10-10T01:00:38.613Z,18.50
2022-10-10T01:15:51.004Z,18.50
2022-10-10T01:30:58.238Z,18.30
2022-10-10T01:46:11.614Z,18.30
2022-10-10T02:01:23.573Z,18.20
2022-10-10T02:16:31.481Z,18.10
2022-10-10T02:31:41.816Z,18.20
2022-10-10T02:46:46.515Z,18.00
2022-10-10T03:01:50.904Z,18.10
2022-10-10T03:16:55.086Z,18.00
2022-10-10T03:31:59.431Z,17.90
2022-10-10T03:47:03.743Z,17.90
2022-10-10T04:02:07.950Z,17.90
2022-10-10T04:17:12.334Z,17.90
2022-10-10T04:32:16.658Z,17.80
2022-10-10T04:47:20.852Z,17.70
2022-10-10T05:02:25.190Z,17.70
2022-10-10T05:17:29.344Z,17.70
2022-10-10T05:32:33.728Z,17.50
2022-10-10T05:47:37.911Z,17.60
2022-10-10T06:02:42.271Z,17.50
2022-10-10T06:17:46.623Z,17.60
2022-10-10T06:32:53.640Z,17.40
2022-10-10T06:48:00.838Z,17.50
2022-10-10T07:03:05.082Z,17.70
2022-10-10T07:18:10.012Z,17.80
2022-10-10T07:33:15.237Z,17.90
2022-10-10T07:48:19.620Z,18.00
2022-10-10T08:03:23.945Z,18.10
2022-10-10T08:18:28.177Z,18.00
2022-10-10T08:33:32.537Z,18.20
2022-10-10T08:48:39.507Z,18.30
2022-10-10T09:03:47.671Z,18.30
2022-10-10T09:19:02.919Z,17.90
2022-10-10T09:34:15.111Z,18.20
2022-10-10T09:49:20.912Z,18.50
2022-10-10T10:04:33.490Z,18.50
2022-10-10T10:19:40.244Z,18.40
2022-10-10T10:34:58.184Z,18.40
2022-10-10T10:50:19.756Z,18.70
2022-10-10T11:05:41.944Z,18.90
2022-10-10T11:20:51.119Z,18.90
2022-10-10T11:36:02.855Z,18.90
2022-10-10T11:51:17.936Z,19.00
2022-10-10T12:06:26.606Z,19.10
2022-10-10T12:21:32.863Z,19.90
2022-10-10T12:37:22.123Z,19.70
2022-10-10T12:52:31.819Z,19.70
2022-10-10T13:07:40.380Z,20.10
2022-10-10T13:22:47.334Z,20.70
2022-10-10T13:37:55.681Z,20.50
2022-10-10T13:53:32.205Z,20.80
2022-10-10T14:08:36.582Z,20.70
2022-10-10T14:23:41.071Z,22.30
2022-10-10T14:38:45.371Z,21.10
2022-10-10T14:54:10.403Z,20.60
2022-10-10T15:09:39.390Z,20.40
2022-10-10T15:24:38.727Z,20.40
2022-10-10T15:39:45.838Z,20.30
2022-10-10T15:54:51.023Z,20.40
2022-10-10T16:09:55.372Z,20.80
2022-10-10T16:40:24.075Z,20.50
2022-10-10T16:55:28.608Z,20.40
2022-10-10T17:10:33.011Z,20.40
2022-10-10T17:25:42.117Z,20.40
2022-10-10T17:40:56.146Z,20.40
2022-10-10T17:56:00.587Z,20.10
2022-10-10T18:11:09.688Z,20.20
2022-10-10T18:26:19.166Z,20.20
2022-10-10T18:41:28.852Z,20.10
2022-10-10T18:56:36.556Z,20.00
2022-10-10T19:11:43.649Z,20.00
2022-10-10T19:26:52.047Z,19.80
2022-10-10T19:41:56.534Z,19.60
2022-10-10T19:57:00.886Z,19.30
2022-10-10T20:12:05.496Z,19.20
2022-10-10T20:27:10.001Z,18.90
2022-10-10T20:42:14.565Z,19.10
2022-10-10T20:57:19.116Z,18.80
2022-10-10T21:12:23.536Z,18.80
2022-10-10T21:27:28.160Z,18.90
2022-10-10T21:42:32.739Z,18.80
2022-10-10T21:57:37.209Z,18.60
2022-10-10T22:12:41.641Z,18.50
2022-10-10T22:27:46.286Z,18.50
2022-10-10T22:42:51.073Z,18.40
2022-10-10T22:57:55.415Z,18.40
2022-10-10T23:13:01.265Z,18.30
2022-10-10T23:28:06.119Z,18.20
2022-10-10T23:43:10.598Z,17.90
2022-10-10T23:58:15.189Z,17.80
